Time;durP1;ratioP1;P1;durP2;ratioP2;P2;SDS_P1;SDS_P2;PMS_P1;PMS_P2;Temp;Humidity;BMP_temperature;BMP_pressure;BME280_temperature;BME280_humidity;BME280_pressure;Samples;Min_cycle;Max_cycle;Signal;HPM_P1;HPM_P2
2023/03/08 00:01:41;;;;;;;39.78;24.05;;;;;;;4.28;100.00;99375.22;1695512;84;21225;-84
2023/03/08 00:04:48;;;;;;;38.55;24.60;;;;;;;4.23;100.00;99370.75;1695184;84;21217;-85
2023/03/08 00:07:53;;;;;;;40.78;23.98;;;;;;;4.23;100.00;99373.45;1694937;84;21827;-84
2023/03/08 00:10:59;;;;;;;44.63;24.63;;;;;;;4.29;100.00;99369.30;1695632;84;21218;-84
2023/03/08 00:14:05;;;;;;;49.73;26.60;;;;;;;4.35;100.00;99369.49;1695823;84;21178;-84
2023/03/08 00:17:12;;;;;;;61.48;33.15;;;;;;;4.47;100.00;99366.50;1695897;84;21226;-84
2023/03/08 00:20:18;;;;;;;52.80;30.43;;;;;;;4.45;100.00;99369.38;1695411;84;21748;-84
2023/03/08 00:23:24;;;;;;;57.33;34.10;;;;;;;4.47;100.00;99370.56;1694833;84;21340;-84
2023/03/08 00:26:30;;;;;;;52.13;31.77;;;;;;;4.50;100.00;99364.84;1695213;84;21820;-84
2023/03/08 00:29:35;;;;;;;58.85;33.18;;;;;;;4.55;100.00;99360.63;1694524;84;21789;-84
2023/03/08 00:32:42;;;;;;;55.52;32.58;;;;;;;4.62;100.00;99367.63;1703354;84;21202;-84
2023/03/08 00:35:48;;;;;;;61.02;37.50;;;;;;;4.77;100.00;99361.94;1703537;84;21213;-84
2023/03/08 00:38:54;;;;;;;70.22;37.63;;;;;;;4.84;100.00;99363.48;1702847;84;21228;-84
2023/03/08 00:42:01;;;;;;;58.02;33.85;;;;;;;4.92;100.00;99364.03;1703649;84;21194;-85
2023/03/08 00:45:06;;;;;;;49.63;33.83;;;;;;;4.95;100.00;99367.78;1703719;84;21241;-84
2023/03/08 00:48:12;;;;;;;50.73;31.65;;;;;;;4.92;100.00;99371.66;1703220;84;21816;-84
2023/03/08 00:51:23;;;;;;;54.83;33.55;;;;;;;4.95;100.00;99366.43;1703537;84;21197;-85
2023/03/08 00:54:29;;;;;;;62.95;37.63;;;;;;;5.00;100.00;99374.41;1703711;84;21206;-84
2023/03/08 00:57:35;;;;;;;58.02;36.70;;;;;;;5.09;100.00;99371.23;1703690;84;21194;-84
2023/03/08 01:00:41;;;;;;;55.38;33.92;;;;;;;5.14;100.00;99375.65;1703769;84;21209;-84
2023/03/08 01:03:46;;;;;;;60.08;37.33;;;;;;;5.18;100.00;99371.59;1702446;84;21242;-83
2023/03/08 01:06:52;;;;;;;57.48;36.65;;;;;;;5.19;100.00;99373.29;1702346;84;21166;-84
2023/03/08 01:10:04;;;;;;;57.30;35.83;;;;;;;5.24;100.00;99372.80;1702527;84;21237;-84
2023/03/08 01:13:11;;;;;;;61.30;37.30;;;;;;;5.26;100.00;99378.89;1703744;84;21201;-84
2023/03/08 01:16:31;;;;;;;63.78;39.45;;;;;;;5.25;100.00;99372.62;1703645;84;21186;-84
2023/03/08 01:19:36;;;;;;;59.20;36.17;;;;;;;5.22;100.00;99374.80;1702733;84;21202;-85
2023/03/08 01:22:37;;;;;;;61.00;38.80;;;;;;;5.13;100.00;99376.16;1703728;84;21181;-84
2023/03/08 01:25:29;;;;;;;67.65;39.83;;;;;;;5.10;100.00;99376.98;1703684;84;21185;-84
2023/03/08 01:28:35;;;;;;;65.23;39.27;;;;;;;5.12;100.00;99382.56;1703871;84;21289;-84
2023/03/08 01:31:39;;;;;;;71.47;39.05;;;;;;;5.11;100.00;99380.03;1698205;84;21927;-84
2023/03/08 01:34:47;;;;;;;74.20;39.67;;;;;;;5.14;100.00;99378.36;1695945;84;21241;-84
2023/03/08 01:37:55;;;;;;;71.92;40.80;;;;;;;5.18;100.00;99382.44;1695013;84;21234;-84
2023/03/08 01:41:05;;;;;;;72.55;43.02;;;;;;;5.23;100.00;99378.73;1696009;84;21155;-84
2023/03/08 01:44:08;;;;;;;68.15;40.80;;;;;;;5.22;100.00;99379.75;1694783;84;22363;-84
2023/03/08 01:47:19;;;;;;;64.70;39.30;;;;;;;5.19;100.00;99381.42;1695883;84;21238;-85
2023/03/08 01:50:27;;;;;;;67.27;41.42;;;;;;;5.23;100.00;99394.16;1679733;84;21291;-85
2023/03/08 01:53:33;;;;;;;66.95;41.28;;;;;;;5.22;100.00;99386.53;1694547;84;22383;-84
2023/03/08 01:56:39;;;;;;;70.92;41.73;;;;;;;5.21;100.00;99389.38;1696048;84;21369;-84
2023/03/08 01:59:46;;;;;;;80.12;47.67;;;;;;;5.21;100.00;99387.52;1705911;83;21213;-85
2023/03/08 02:03:11;;;;;;;82.82;47.08;;;;;;;5.18;100.00;99391.09;1711250;84;21547;-84
2023/03/08 02:06:18;;;;;;;86.95;47.75;;;;;;;5.17;100.00;99392.92;1767354;81;21205;-85
2023/03/08 02:09:24;;;;;;;85.53;46.33;;;;;;;5.18;100.00;99387.86;1731646;83;21225;-84
2023/03/08 02:12:31;;;;;;;95.17;49.73;;;;;;;5.19;100.00;99386.00;1768728;81;21161;-84
2023/03/08 02:15:37;;;;;;;89.37;47.20;;;;;;;5.20;100.00;99388.53;1768904;81;21256;-85
2023/03/08 02:18:44;;;;;;;84.32;46.92;;;;;;;5.21;100.00;99387.52;1768601;81;21775;-85
2023/03/08 02:21:49;;;;;;;103.47;54.15;;;;;;;5.24;100.00;99392.63;1768374;81;22426;-84
2023/03/08 02:24:55;;;;;;;95.85;50.88;;;;;;;5.25;100.00;99387.53;1768425;81;21205;-84
2023/03/08 02:28:02;;;;;;;77.62;44.55;;;;;;;5.27;100.00;99389.59;1768698;81;21165;-85
2023/03/08 02:31:09;;;;;;;73.83;39.78;;;;;;;5.30;100.00;99390.59;1768188;81;21331;-83
2023/03/08 02:34:14;;;;;;;68.67;40.73;;;;;;;5.28;100.00;99385.86;1774197;80;21220;-84
2023/03/08 02:37:21;;;;;;;64.92;38.88;;;;;;;5.17;100.00;99375.30;1777808;80;21739;-85
2023/03/08 02:40:27;;;;;;;67.10;40.95;;;;;;;5.11;100.00;99378.67;1777139;80;21191;-84
2023/03/08 02:43:33;;;;;;;66.12;38.40;;;;;;;5.12;100.00;99377.66;1777786;80;21219;-84
2023/03/08 02:46:39;;;;;;;57.20;35.60;;;;;;;5.12;100.00;99379.01;1776535;80;21189;-83
2023/03/08 02:49:44;;;;;;;63.60;36.75;;;;;;;5.06;100.00;99383.74;1776453;80;21814;-84
2023/03/08 02:52:50;;;;;;;67.58;40.05;;;;;;;5.04;100.00;99387.13;1777860;80;21183;-84
2023/03/08 02:55:55;;;;;;;57.95;34.00;;;;;;;5.08;100.00;99385.77;1740446;82;21248;-84
2023/03/08 02:59:00;;;;;;;79.85;40.88;;;;;;;5.05;100.00;99376.12;1711192;84;21201;-85
2023/03/08 03:02:06;;;;;;;73.25;41.70;;;;;;;5.04;100.00;99374.43;1724878;83;21178;-84
2023/03/08 03:05:13;;;;;;;69.50;39.88;;;;;;;5.03;100.00;99367.80;1718855;83;21181;-85
2023/03/08 03:08:20;;;;;;;71.37;41.40;;;;;;;5.01;100.00;99380.16;1718847;83;21214;-84
2023/03/08 03:11:28;;;;;;;65.25;38.30;;;;;;;4.98;100.00;99371.00;1719155;83;21217;-84
2023/03/08 03:14:35;;;;;;;60.80;37.38;;;;;;;5.02;100.00;99378.30;1718808;83;21231;-84
2023/03/08 03:17:41;;;;;;;68.62;39.55;;;;;;;5.03;100.00;99380.84;1720168;83;21276;-84
2023/03/08 03:20:47;;;;;;;65.35;38.50;;;;;;;5.01;100.00;99377.97;1719878;83;21241;-84
2023/03/08 03:23:53;;;;;;;86.72;42.58;;;;;;;5.01;100.00;99382.88;1719910;83;21236;-84
2023/03/08 03:27:06;;;;;;;70.72;38.80;;;;;;;5.00;100.00;99389.83;1720199;83;21244;-85
2023/03/08 03:30:12;;;;;;;61.10;36.70;;;;;;;4.94;100.00;99385.03;1719000;83;21236;-83
2023/03/08 03:33:18;;;;;;;70.87;39.80;;;;;;;4.94;100.00;99390.45;1719206;83;21213;-84
2023/03/08 03:36:27;;;;;;;64.70;36.30;;;;;;;4.94;100.00;99390.45;1703666;84;21205;-84
2023/03/08 03:39:33;;;;;;;75.50;37.60;;;;;;;4.95;100.00;99392.17;1703628;84;21186;-83
2023/03/08 03:42:40;;;;;;;72.97;38.23;;;;;;;4.94;100.00;99390.45;1702423;84;21181;-84
2023/03/08 03:45:47;;;;;;;69.75;40.10;;;;;;;4.94;100.00;99389.09;1703494;84;21718;-83
2023/03/08 03:48:53;;;;;;;65.97;37.28;;;;;;;4.92;100.00;99385.72;1702293;84;21253;-83
2023/03/08 03:52:01;;;;;;;77.95;40.03;;;;;;;4.96;100.00;99381.67;1702727;84;21230;-84
2023/03/08 03:55:09;;;;;;;73.62;39.10;;;;;;;4.96;100.00;99383.87;1703751;84;21190;-85
2023/03/08 03:58:15;;;;;;;71.05;38.67;;;;;;;4.95;100.00;99374.56;1702360;84;21214;-84
2023/03/08 04:01:17;;;;;;;61.55;36.38;;;;;;;4.93;100.00;99377.92;1702483;84;21265;-84
2023/03/08 04:04:25;;;;;;;68.50;39.40;;;;;;;4.90;100.00;99370.14;1703876;84;21198;-85
2023/03/08 04:07:31;;;;;;;72.30;37.65;;;;;;;4.91;100.00;99357.77;1703673;84;21213;-85
2023/03/08 04:10:36;;;;;;;75.60;38.78;;;;;;;4.91;100.00;99352.86;1677302;84;21764;-84
2023/03/08 04:13:41;;;;;;;72.10;38.05;;;;;;;4.86;100.00;99344.70;1680927;84;21209;-84
2023/03/08 04:16:43;;;;;;;73.17;39.45;;;;;;;4.85;100.00;99343.02;1702365;84;21779;-85
2023/03/08 04:19:44;;;;;;;62.08;35.13;;;;;;;4.84;100.00;99352.14;1701389;84;21197;-84
2023/03/08 04:22:50;;;;;;;70.37;38.45;;;;;;;4.83;100.00;99345.02;1702451;84;21201;-84
2023/03/08 04:26:00;;;;;;;63.60;36.75;;;;;;;4.81;100.00;99347.06;1702624;84;21210;-84
2023/03/08 04:29:05;;;;;;;65.47;37.25;;;;;;;4.81;100.00;99348.92;1703502;84;21245;-84
2023/03/08 04:32:13;;;;;;;72.22;40.78;;;;;;;4.80;100.00;99349.44;1702448;84;21233;-84
2023/03/08 04:35:20;;;;;;;62.43;36.35;;;;;;;4.81;100.00;99351.13;1706711;83;21244;-85
2023/03/08 04:38:27;;;;;;;66.33;38.67;;;;;;;4.83;100.00;99357.22;1769584;81;21766;-86
2023/03/08 04:41:33;;;;;;;68.28;38.45;;;;;;;4.86;100.00;99356.06;1732897;83;21288;-85
2023/03/08 04:44:43;;;;;;;71.67;41.50;;;;;;;4.91;100.00;99355.57;1769614;81;21193;-84
2023/03/08 04:47:50;;;;;;;72.10;39.38;;;;;;;4.92;100.00;99352.69;1768307;81;21176;-85
2023/03/08 04:51:02;;;;;;;72.67;39.83;;;;;;;4.97;100.00;99359.81;1768387;81;21191;-85
2023/03/08 04:54:09;;;;;;;71.80;39.92;;;;;;;5.05;100.00;99358.50;1732776;83;21219;-85
2023/03/08 04:57:16;;;;;;;72.87;38.78;;;;;;;5.11;100.00;99363.25;1769911;81;21205;-83
2023/03/08 05:00:22;;;;;;;65.05;37.70;;;;;;;5.13;100.00;99358.53;1731667;83;21795;-83
2023/03/08 05:03:29;;;;;;;69.90;37.17;;;;;;;5.17;100.00;99349.55;1768190;81;21185;-83
2023/03/08 05:06:28;;;;;;;65.57;35.48;;;;;;;5.20;100.00;99361.42;1731578;82;21882;-83
2023/03/08 05:09:36;;;;;;;69.62;36.88;;;;;;;5.23;100.00;99372.46;1769855;81;21359;-82
2023/03/08 05:12:42;;;;;;;69.53;38.78;;;;;;;5.27;100.00;99367.90;1732553;83;21225;-83
2023/03/08 05:15:49;;;;;;;72.45;40.75;;;;;;;5.30;100.00;99368.91;1768889;81;21295;-83
2023/03/08 05:18:54;;;;;;;70.97;39.75;;;;;;;5.31;100.00;99365.17;1769891;81;21201;-84
2023/03/08 05:22:04;;;;;;;78.90;40.25;;;;;;;5.31;100.00;99380.09;1732516;83;21189;-85
2023/03/08 05:25:12;;;;;;;76.80;42.25;;;;;;;5.37;100.00;99395.72;1768047;81;21784;-84
2023/03/08 05:28:19;;;;;;;71.62;38.63;;;;;;;5.47;100.00;99405.06;1769360;81;21189;-84
2023/03/08 05:31:28;;;;;;;73.97;38.95;;;;;;;5.60;100.00;99380.18;1714775;82;21339;-84
2023/03/08 05:34:33;;;;;;;74.00;38.83;;;;;;;5.69;100.00;99371.52;1755013;81;21244;-84
2023/03/08 05:37:41;;;;;;;72.60;38.88;;;;;;;5.72;100.00;99378.82;1758550;81;21230;-84
2023/03/08 05:40:49;;;;;;;74.40;40.43;;;;;;;5.77;100.00;99377.80;1766151;81;21785;-85
2023/03/08 05:43:57;;;;;;;75.17;37.78;;;;;;;5.81;100.00;99387.83;1764759;81;21760;-83
2023/03/08 05:47:03;;;;;;;76.77;36.88;;;;;;;5.87;100.00;99387.98;1749533;81;21204;-84
2023/03/08 05:50:09;;;;;;;72.60;36.80;;;;;;;5.93;100.00;99377.02;1747179;82;22348;-84
2023/03/08 05:53:15;;;;;;;66.25;34.23;;;;;;;5.96;100.00;99376.66;1746524;82;21271;-84
2023/03/08 05:56:27;;;;;;;63.90;36.08;;;;;;;6.01;100.00;99374.80;1747034;82;21885;-84
2023/03/08 05:59:39;;;;;;;59.42;32.70;;;;;;;6.11;100.00;99370.03;1745614;82;21846;-83
2023/03/08 06:02:46;;;;;;;57.78;32.03;;;;;;;6.11;100.00;99372.75;1731483;83;21223;-85
2023/03/08 06:05:52;;;;;;;60.90;32.50;;;;;;;6.14;100.00;99369.19;1732633;83;21251;-84
2023/03/08 06:08:57;;;;;;;56.77;31.87;;;;;;;6.21;100.00;99359.88;1732783;83;21187;-84
2023/03/08 06:12:05;;;;;;;58.05;31.68;;;;;;;6.18;100.00;99361.56;1731361;83;21192;-84
2023/03/08 06:15:14;;;;;;;51.10;29.95;;;;;;;6.18;100.00;99367.50;1734829;81;21203;-84
2023/03/08 06:18:22;;;;;;;48.38;28.47;;;;;;;6.22;100.00;99369.70;1761201;81;21204;-84
2023/03/08 06:21:30;;;;;;;53.28;29.07;;;;;;;6.22;100.00;99369.70;1763217;81;21180;-84
2023/03/08 06:24:36;;;;;;;49.98;27.32;;;;;;;6.31;100.00;99361.89;1761174;81;21161;-85
2023/03/08 06:27:44;;;;;;;51.20;26.80;;;;;;;6.35;100.00;99362.37;1712853;83;21508;-84
2023/03/08 06:30:54;;;;;;;41.65;24.52;;;;;;;6.37;100.00;99357.12;1710544;83;21790;-86
2023/03/08 06:34:00;;;;;;;42.93;23.50;;;;;;;6.46;100.00;99359.83;1684270;84;21208;-85
2023/03/08 06:37:06;;;;;;;41.58;23.07;;;;;;;6.56;100.00;99357.76;1686641;84;21798;-84
2023/03/08 06:40:12;;;;;;;43.25;23.77;;;;;;;6.62;100.00;99357.05;1707996;84;21264;-84
2023/03/08 06:43:19;;;;;;;39.53;22.22;;;;;;;6.61;100.00;99346.70;1694298;84;21250;-84
2023/03/08 06:46:19;;;;;;;41.23;22.52;;;;;;;6.62;100.00;99343.47;1704643;83;21190;-84
2023/03/08 06:49:12;;;;;;;38.88;22.65;;;;;;;6.68;100.00;99341.44;1732700;83;21201;-84
2023/03/08 06:51:58;;;;;;;39.95;23.05;;;;;;;6.68;100.00;99338.72;1725845;83;21177;-85
2023/03/08 06:54:51;;;;;;;39.27;23.20;;;;;;;6.71;100.00;99323.40;1730850;83;21252;-84
2023/03/08 06:57:38;;;;;;;39.80;23.27;;;;;;;6.75;100.00;99334.26;1725183;83;21201;-85
2023/03/08 07:00:32;;;;;;;36.28;20.97;;;;;;;6.77;100.00;99343.59;1725731;82;21186;-84
2023/03/08 07:03:18;;;;;;;40.55;22.82;;;;;;;6.79;100.00;99327.45;1724054;83;21173;-85
2023/03/08 07:06:13;;;;;;;38.10;21.77;;;;;;;6.81;100.00;99336.78;1731513;83;21291;-85
2023/03/08 07:09:20;;;;;;;37.93;20.45;;;;;;;6.85;100.00;99334.89;1725408;83;21966;-84
2023/03/08 07:12:25;;;;;;;38.20;23.83;;;;;;;7.03;100.00;99326.49;1711653;83;21240;-84
2023/03/08 07:15:32;;;;;;;44.80;25.85;;;;;;;6.98;100.00;99334.85;1719347;83;22092;-84
2023/03/08 07:18:40;;;;;;;42.53;24.85;;;;;;;6.95;100.00;99324.32;1722313;83;21787;-86
2023/03/08 07:21:46;;;;;;;39.45;24.60;;;;;;;7.01;100.00;99324.96;1714773;83;21810;-85
2023/03/08 07:24:55;;;;;;;46.25;24.70;;;;;;;7.11;100.00;99330.55;1722972;83;21597;-84
2023/03/08 07:28:01;;;;;;;48.17;26.20;;;;;;;7.17;100.00;99326.26;1704998;83;21211;-85
2023/03/08 07:31:06;;;;;;;50.30;26.17;;;;;;;7.18;100.00;99328.78;1712653;83;21194;-85
2023/03/08 07:34:12;;;;;;;49.33;26.48;;;;;;;7.23;100.00;99320.09;1705967;83;21288;-84
2023/03/08 07:37:20;;;;;;;51.00;26.93;;;;;;;7.31;100.00;99324.13;1715305;83;21186;-85
2023/03/08 07:40:26;;;;;;;43.10;25.02;;;;;;;7.29;100.00;99322.12;1722190;83;21183;-85
2023/03/08 07:43:31;;;;;;;49.98;26.02;;;;;;;7.38;100.00;99325.09;1704119;83;21235;-85
2023/03/08 07:46:39;;;;;;;47.88;26.07;;;;;;;7.33;100.00;99318.50;1766154;81;21217;-85
2023/03/08 07:49:45;;;;;;;44.83;24.67;;;;;;;7.44;100.00;99314.03;1761818;81;21886;-86
2023/03/08 07:52:50;;;;;;;45.03;25.25;;;;;;;7.49;100.00;99313.48;1759884;80;21165;-85
2023/03/08 07:55:57;;;;;;;45.23;25.32;;;;;;;7.45;100.00;99308.07;1763342;81;21202;-85
2023/03/08 07:59:06;;;;;;;50.43;25.50;;;;;;;7.43;100.00;99306.38;1763366;81;21727;-85
2023/03/08 08:02:12;;;;;;;47.58;25.88;;;;;;;7.47;100.00;99299.20;1767590;81;21173;-85
2023/03/08 08:05:20;;;;;;;48.68;26.85;;;;;;;7.52;100.00;99292.70;1766782;81;21249;-84
2023/03/08 08:08:26;;;;;;;36.95;22.37;;;;;;;7.57;100.00;99284.83;1759848;81;21696;-85
2023/03/08 08:11:33;;;;;;;46.58;26.25;;;;;;;7.63;100.00;99289.57;1763520;81;21189;-84
2023/03/08 08:14:39;;;;;;;37.40;22.65;;;;;;;7.74;100.00;99290.48;1767039;81;21169;-85
2023/03/08 08:17:45;;;;;;;31.68;20.08;;;;;;;7.83;100.00;99290.75;1760950;81;21178;-85
2023/03/08 08:20:51;;;;;;;31.85;19.05;;;;;;;7.94;100.00;99294.38;1757015;81;21280;-84
2023/03/08 08:23:57;;;;;;;28.92;17.40;;;;;;;8.10;100.00;99299.37;1755834;81;21820;-84
2023/03/08 08:27:05;;;;;;;22.55;14.07;;;;;;;8.30;100.00;99291.50;1763363;81;21145;-85
2023/03/08 08:30:13;;;;;;;29.65;17.87;;;;;;;8.51;100.00;99290.26;1763062;79;21784;-85
2023/03/08 08:33:19;;;;;;;34.38;17.80;;;;;;;8.66;100.00;99292.48;1754706;81;21169;-85
2023/03/08 08:36:26;;;;;;;28.47;18.02;;;;;;;8.80;100.00;99295.37;1763980;81;21763;-86
2023/03/08 08:39:32;;;;;;;29.40;17.50;;;;;;;8.87;100.00;99288.98;1755155;81;21155;-85
2023/03/08 08:42:39;;;;;;;31.42;16.62;;;;;;;9.03;100.00;99293.36;1770021;79;21747;-85
2023/03/08 08:45:50;;;;;;;28.60;15.75;;;;;;;9.13;100.00;99291.73;1776951;80;21169;-85
2023/03/08 08:48:56;;;;;;;31.62;17.87;;;;;;;9.19;100.00;99290.95;1779996;80;21751;-86
2023/03/08 08:52:02;;;;;;;25.85;15.25;;;;;;;9.28;100.00;99291.16;1779084;80;21216;-85
2023/03/08 08:55:10;;;;;;;21.93;13.80;;;;;;;9.37;100.00;99284.55;1754971;80;22134;-86
2023/03/08 08:58:23;;;;;;;27.98;15.48;;;;;;;9.48;100.00;99287.27;1778708;80;21153;-85
2023/03/08 09:01:38;;;;;;;24.72;13.15;;;;;;;9.60;100.00;99292.55;1758369;80;21283;-85
2023/03/08 09:04:48;;;;;;;23.10;12.25;;;;;;;9.73;100.00;99289.09;1745542;80;21861;-85
2023/03/08 09:08:03;;;;;;;26.52;12.73;;;;;;;9.87;100.00;99285.44;1738199;80;21295;-84
2023/03/08 09:11:15;;;;;;;19.92;11.40;;;;;;;10.02;100.00;99273.58;1745640;80;21330;-84
2023/03/08 09:14:25;;;;;;;20.92;12.20;;;;;;;10.15;100.00;99268.22;1738756;80;21807;-86
2023/03/08 09:17:34;;;;;;;;;;;;;;;10.34;100.00;99263.97;1781959;80;21861;-85
2023/03/08 09:20:43;;;;;;;20.82;11.48;;;;;;;10.52;100.00;99263.45;1762926;80;20224;-85
2023/03/08 09:23:54;;;;;;;27.82;14.25;;;;;;;10.60;100.00;99255.94;1741745;80;21208;-86
2023/03/08 09:27:03;;;;;;;20.30;11.75;;;;;;;10.76;100.00;99260.22;1780308;80;21788;-86
2023/03/08 09:30:11;;;;;;;24.02;13.05;;;;;;;10.87;100.00;99255.55;1738169;82;21239;-85
2023/03/08 09:33:18;;;;;;;21.82;12.70;;;;;;;10.98;100.00;99254.95;1716652;83;21267;-85
2023/03/08 09:36:17;;;;;;;;;;;;;;;11.00;100.00;99255.58;1705163;83;21938;-85
2023/03/08 09:39:23;;;;;;;20.80;11.80;;;;;;;11.04;100.00;99252.45;1724528;83;20249;-85
2023/03/08 09:42:37;;;;;;;21.50;11.60;;;;;;;11.15;100.00;99251.84;1715086;83;21207;-85
2023/03/08 09:45:42;;;;;;;18.62;9.90;;;;;;;11.31;100.00;99248.75;1724292;82;21567;-85
2023/03/08 09:48:49;;;;;;;17.73;8.68;;;;;;;11.57;100.00;99243.83;1725413;82;21233;-85
2023/03/08 09:51:57;;;;;;;12.15;7.60;;;;;;;11.83;100.00;99242.22;1720072;83;21245;-85
2023/03/08 09:55:03;;;;;;;12.53;6.37;;;;;;;12.05;100.00;99246.44;1722177;82;21268;-86
2023/03/08 09:58:41;;;;;;;14.18;8.00;;;;;;;12.23;100.00;99243.89;1690920;84;21181;-86
2023/03/08 10:02:12;;;;;;;13.13;7.42;;;;;;;12.34;98.78;99233.33;1769554;81;21165;-85
2023/03/08 10:05:59;;;;;;;11.20;6.50;;;;;;;12.54;97.19;99225.88;1734297;81;21204;-85
2023/03/08 10:09:36;;;;;;;11.68;6.10;;;;;;;12.65;95.37;99224.36;1764020;81;22140;-85
2023/03/08 10:13:23;;;;;;;13.48;7.08;;;;;;;12.71;93.28;99216.66;1763039;81;21445;-85
2023/03/08 10:16:39;;;;;;;13.53;6.85;;;;;;;12.81;92.02;99207.97;1765691;81;21213;-84
2023/03/08 10:20:07;;;;;;;16.70;6.97;;;;;;;12.83;89.59;99196.23;1755696;81;21174;-85
2023/03/08 10:23:26;;;;;;;10.20;5.97;;;;;;;12.89;90.00;99193.98;1766810;81;21161;-84
2023/03/08 10:26:32;;;;;;;13.10;5.58;;;;;;;12.90;88.70;99188.83;1762033;81;21178;-85
2023/03/08 10:29:38;;;;;;;9.90;5.42;;;;;;;12.96;87.87;99188.78;1758972;79;21244;-84
2023/03/08 10:32:50;;;;;;;12.45;5.85;;;;;;;13.12;88.32;99179.71;1766606;81;21152;-83
2023/03/08 10:36:11;;;;;;;11.35;5.70;;;;;;;13.33;87.10;99170.34;1707744;81;21592;-84
2023/03/08 10:39:16;;;;;;;15.90;7.60;;;;;;;13.40;85.07;99169.20;1764694;81;21193;-84
2023/03/08 10:42:22;;;;;;;10.90;5.55;;;;;;;13.45;83.16;99173.50;1766858;81;21735;-83
2023/03/08 10:45:29;;;;;;;11.33;5.35;;;;;;;13.51;82.45;99165.77;1738193;82;21168;-85
2023/03/08 10:48:35;;;;;;;13.53;6.20;;;;;;;13.54;81.86;99164.45;1730874;82;21164;-84
2023/03/08 10:51:41;;;;;;;10.40;6.12;;;;;;;13.55;80.68;99164.25;1737409;82;22377;-84
2023/03/08 10:54:50;;;;;;;13.75;5.85;;;;;;;13.55;79.68;99160.14;1734537;82;21192;-83
2023/03/08 10:58:05;;;;;;;19.65;7.58;;;;;;;13.53;79.15;99145.77;1735822;82;21735;-83
2023/03/08 11:01:31;;;;;;;12.80;6.62;;;;;;;13.57;79.38;99153.56;1736648;82;21211;-83
2023/03/08 11:04:37;;;;;;;11.33;5.70;;;;;;;13.64;79.28;99156.55;1735913;82;21231;-85
2023/03/08 11:07:42;;;;;;;13.90;7.05;;;;;;;13.73;77.36;99159.86;1734197;82;21212;-84
2023/03/08 11:10:48;;;;;;;21.27;9.95;;;;;;;13.78;75.34;99156.77;1714887;82;21233;-85
2023/03/08 11:13:54;;;;;;;22.93;10.25;;;;;;;13.93;73.11;99163.30;1727623;82;21208;-84
2023/03/08 11:17:13;;;;;;;19.42;9.20;;;;;;;13.94;73.11;99156.72;1724018;82;21223;-84
2023/03/08 11:20:37;;;;;;;11.88;6.65;;;;;;;13.99;71.26;99145.05;1725958;82;21243;-85
2023/03/08 11:23:48;;;;;;;17.60;7.75;;;;;;;13.99;70.67;99152.76;1736515;82;21204;-85
2023/03/08 11:27:07;;;;;;;11.10;5.58;;;;;;;13.97;70.25;99148.03;1735873;82;21172;-84
2023/03/08 11:30:48;;;;;;;22.98;11.75;;;;;;;13.93;67.90;99157.80;1733141;82;21216;-85
2023/03/08 11:34:14;;;;;;;21.50;10.25;;;;;;;13.92;68.05;99157.46;1739147;82;21184;-85
2023/03/08 11:37:30;;;;;;;13.10;5.80;;;;;;;14.02;68.55;99159.19;1733695;82;21193;-85
2023/03/08 11:41:19;;;;;;;10.45;5.90;;;;;;;14.14;65.82;99157.05;1740974;82;21192;-85
2023/03/08 11:44:39;;;;;;;9.83;5.83;;;;;;;14.16;64.83;99149.41;1757724;80;21763;-84
2023/03/08 11:48:05;;;;;;;10.90;5.72;;;;;;;14.14;62.64;99141.94;1774178;80;21208;-84
2023/03/08 11:51:21;;;;;;;15.08;6.28;;;;;;;14.16;62.11;99149.41;1776949;80;21165;-84
2023/03/08 11:54:50;;;;;;;9.58;5.78;;;;;;;14.09;61.37;99151.40;1771176;80;21158;-84
2023/03/08 11:58:01;;;;;;;11.03;5.80;;;;;;;13.96;61.56;99150.45;1743548;80;21244;-85
2023/03/08 12:01:07;;;;;;;12.58;6.50;;;;;;;13.81;61.24;99157.67;1772926;80;21212;-84
2023/03/08 12:04:21;;;;;;;14.40;5.72;;;;;;;13.74;62.02;99152.79;1773730;80;21216;-84
2023/03/08 12:07:51;;;;;;;13.28;6.05;;;;;;;13.69;63.18;99147.63;1768051;80;21246;-84
2023/03/08 12:11:25;;;;;;;12.93;6.53;;;;;;;13.72;64.79;99149.94;1775082;80;21184;-84
2023/03/08 12:14:44;;;;;;;12.10;6.22;;;;;;;13.77;64.35;99152.31;1772883;80;21157;-84
2023/03/08 12:17:55;;;;;;;15.38;6.33;;;;;;;13.85;65.58;99157.23;1771798;80;21165;-85
2023/03/08 12:21:08;;;;;;;16.10;6.00;;;;;;;13.89;65.95;99151.06;1778979;80;21157;-85
2023/03/08 12:24:52;;;;;;;12.50;6.55;;;;;;;13.96;64.93;99149.08;1773976;80;21164;-84
2023/03/08 12:28:32;;;;;;;15.43;6.72;;;;;;;14.02;65.00;99144.07;1776029;79;21165;-85
2023/03/08 12:31:41;;;;;;;;;;;;;;;14.02;63.27;99138.57;1779160;80;21164;-84
2023/03/08 12:34:52;;;;;;;10.82;5.58;;;;;;;14.01;63.14;99133.28;1782053;80;20205;-84
2023/03/08 12:38:10;;;;;;;8.90;5.33;;;;;;;14.07;61.45;99135.14;1773519;80;21217;-85
2023/03/08 12:41:36;;;;;;;12.65;5.78;;;;;;;14.10;59.85;99134.66;1779573;80;21176;-84
2023/03/08 12:44:42;;;;;;;12.25;5.72;;;;;;;14.20;58.34;99141.01;1770518;80;21228;-85
2023/03/08 12:47:49;;;;;;;11.18;5.83;;;;;;;14.28;57.42;99144.84;1782424;80;21157;-83
2023/03/08 12:51:06;;;;;;;12.28;5.85;;;;;;;14.30;56.39;99130.31;1778505;80;21560;-83
2023/03/08 12:54:11;;;;;;;13.48;6.25;;;;;;;14.27;57.08;99132.17;1775742;80;22049;-85
2023/03/08 12:57:29;;;;;;;11.53;5.78;;;;;;;14.24;56.42;99135.36;1781326;80;21774;-84
2023/03/08 13:00:43;;;;;;;11.15;5.53;;;;;;;14.20;57.12;99130.84;1771468;80;21813;-84
2023/03/08 13:03:49;;;;;;;12.73;5.78;;;;;;;14.20;57.43;99130.84;1778545;80;21715;-84
2023/03/08 13:07:18;;;;;;;11.35;6.25;;;;;;;14.24;57.07;99135.36;1780344;80;21522;-85
2023/03/08 13:10:29;;;;;;;11.85;5.90;;;;;;;14.37;57.02;99133.01;1781403;80;22121;-84
2023/03/08 13:13:57;;;;;;;12.35;5.50;;;;;;;14.49;56.53;99138.06;1781088;80;21177;-84
2023/03/08 13:17:05;;;;;;;12.58;5.80;;;;;;;14.54;56.42;99130.82;1781381;80;21297;-84
2023/03/08 13:20:36;;;;;;;12.60;6.25;;;;;;;14.55;56.59;99128.37;1760960;80;21189;-84
2023/03/08 13:23:49;;;;;;;12.07;5.83;;;;;;;14.40;56.55;99132.02;1782350;80;21216;-84
2023/03/08 13:27:09;;;;;;;10.50;5.95;;;;;;;14.33;57.61;99129.87;1781708;80;21231;-86
2023/03/08 13:30:34;;;;;;;11.05;5.67;;;;;;;14.31;57.08;99125.98;1777643;80;22338;-84
2023/03/08 13:33:51;;;;;;;11.20;6.00;;;;;;;14.31;57.89;99127.89;1776630;80;21186;-85
2023/03/08 13:36:56;;;;;;;10.88;5.62;;;;;;;14.25;57.46;99127.41;1779017;80;21232;-85
2023/03/08 13:40:07;;;;;;;10.98;5.40;;;;;;;14.19;55.24;99122.30;1779309;80;21794;-84
2023/03/08 13:43:12;;;;;;;11.30;5.60;;;;;;;14.23;54.74;99127.65;1777451;80;21219;-84
2023/03/08 13:46:19;;;;;;;11.90;5.47;;;;;;;14.13;55.06;99116.88;1774156;80;21848;-83
2023/03/08 13:49:42;;;;;;;11.43;5.85;;;;;;;14.03;54.79;99116.04;1766918;81;22122;-84
2023/03/08 13:52:49;;;;;;;13.50;6.28;;;;;;;13.99;54.71;99113.44;1729399;82;21165;-85
2023/03/08 13:56:00;;;;;;;10.82;5.37;;;;;;;13.94;55.21;99111.36;1768303;81;21371;-85
2023/03/08 13:59:07;;;;;;;8.68;5.25;;;;;;;13.89;56.01;99115.33;1766282;81;21221;-84
2023/03/08 14:02:24;;;;;;;12.75;6.30;;;;;;;13.84;55.76;99113.80;1767135;81;21197;-85
2023/03/08 14:05:39;;;;;;;13.38;6.95;;;;;;;13.80;54.80;99113.94;1759821;81;21185;-85
2023/03/08 14:08:45;;;;;;;10.60;5.42;;;;;;;13.77;54.87;99115.22;1764539;81;21213;-85
2023/03/08 14:11:44;;;;;;;11.68;6.30;;;;;;;13.74;54.65;99110.20;1744435;81;21177;-85
2023/03/08 14:14:52;;;;;;;10.17;6.60;;;;;;;13.69;54.28;99116.03;1760457;81;21209;-85
2023/03/08 14:18:01;;;;;;;8.60;6.10;;;;;;;13.63;54.06;99112.29;1753823;81;21194;-84
2023/03/08 14:21:29;;;;;;;13.18;6.10;;;;;;;13.57;53.96;99115.95;1766906;81;21280;-84
2023/03/08 14:24:40;;;;;;;9.70;6.03;;;;;;;13.48;53.67;99117.29;1733162;81;21169;-84
2023/03/08 14:27:47;;;;;;;12.05;5.20;;;;;;;13.37;53.77;99114.74;1747735;81;22530;-84
2023/03/08 14:30:56;;;;;;;10.98;4.78;;;;;;;13.27;53.70;99111.66;1731390;82;21224;-85
2023/03/08 14:34:08;;;;;;;10.35;5.17;;;;;;;13.20;53.69;99109.45;1763987;81;21510;-85